sensor_id;sensor_type;location;lat;lon;timestamp;temperature;humidity
20566;DHT22;10441;50.884;12.064;2022-08-19T00:02:16;18.40;99.90
20566;DHT22;10441;50.884;12.064;2022-08-19T00:04:44;18.40;99.90
20566;DHT22;10441;50.884;12.064;2022-08-19T00:07:14;18.40;99.90
20566;DHT22;10441;50.884;12.064;2022-08-19T00:09:41;18.40;99.90
20566;DHT22;10441;50.884;12.064;2022-08-19T00:12:09;18.40;99.90
20566;DHT22;10441;50.884;12.064;2022-08-19T00:14:38;18.40;99.90
20566;DHT22;10441;50.884;12.064;2022-08-19T00:17:08;18.40;99.90
20566;DHT22;10441;50.884;12.064;2022-08-19T00:19:39;18.40;99.90
20566;DHT22;10441;50.884;12.064;2022-08-19T00:22:09;18.40;99.90
20566;DHT22;10441;50.884;12.064;2022-08-19T00:24:37;18.50;99.90
20566;DHT22;10441;50.884;12.064;2022-08-19T00:27:07;18.50;99.90
20566;DHT22;10441;50.884;12.064;2022-08-19T00:29:35;18.40;99.90
20566;DHT22;10441;50.884;12.064;2022-08-19T00:32:03;18.40;99.90
20566;DHT22;10441;50.884;12.064;2022-08-19T00:34:33;18.40;99.90
20566;DHT22;10441;50.884;12.064;2022-08-19T00:37:03;18.40;99.90
20566;DHT22;10441;50.884;12.064;2022-08-19T00:39:34;18.40;99.90
20566;DHT22;10441;50.884;12.064;2022-08-19T00:42:02;18.40;99.90
20566;DHT22;10441;50.884;12.064;2022-08-19T00:44:29;18.40;99.90
20566;DHT22;10441;50.884;12.064;2022-08-19T00:46:58;18.40;99.90
20566;DHT22;10441;50.884;12.064;2022-08-19T00:49:28;18.40;99.90
20566;DHT22;10441;50.884;12.064;2022-08-19T00:51:59;18.40;99.90
20566;DHT22;10441;50.884;12.064;2022-08-19T00:54:28;18.40;99.90
20566;DHT22;10441;50.884;12.064;2022-08-19T00:56:58;18.40;99.90
20566;DHT22;10441;50.884;12.064;2022-08-19T00:59:27;18.40;99.90
20566;DHT22;10441;50.884;12.064;2022-08-19T01:01:54;18.40;99.90
20566;DHT22;10441;50.884;12.064;2022-08-19T01:04:21;18.40;99.90
20566;DHT22;10441;50.884;12.064;2022-08-19T01:06:48;18.40;99.90
20566;DHT22;10441;50.884;12.064;2022-08-19T01:09:17;18.40;99.90
20566;DHT22;10441;50.884;12.064;2022-08-19T01:11:45;18.40;99.90
20566;DHT22;10441;50.884;12.064;2022-08-19T01:14:13;18.40;99.90
20566;DHT22;10441;50.884;12.064;2022-08-19T01:16:43;18.50;99.90
20566;DHT22;10441;50.884;12.064;2022-08-19T01:19:27;18.40;99.90
20566;DHT22;10441;50.884;12.064;2022-08-19T01:21:59;18.40;99.90
20566;DHT22;10441;50.884;12.064;2022-08-19T01:24:30;18.40;99.90
20566;DHT22;10441;50.884;12.064;2022-08-19T01:26:58;18.50;99.90
20566;DHT22;10441;50.884;12.064;2022-08-19T01:29:29;18.50;99.90
20566;DHT22;10441;50.884;12.064;2022-08-19T01:32:02;18.50;99.90
20566;DHT22;10441;50.884;12.064;2022-08-19T01:34:30;18.50;99.90
20566;DHT22;10441;50.884;12.064;2022-08-19T01:37:05;18.50;99.90
20566;DHT22;10441;50.884;12.064;2022-08-19T01:39:35;18.60;99.90
20566;DHT22;10441;50.884;12.064;2022-08-19T01:42:03;18.50;99.90
20566;DHT22;10441;50.884;12.064;2022-08-19T01:44:31;18.50;99.90
20566;DHT22;10441;50.884;12.064;2022-08-19T01:47:00;18.60;99.90
20566;DHT22;10441;50.884;12.064;2022-08-19T01:49:30;18.60;99.90
20566;DHT22;10441;50.884;12.064;2022-08-19T01:52:00;18.60;99.90
20566;DHT22;10441;50.884;12.064;2022-08-19T01:54:28;18.60;99.90
20566;DHT22;10441;50.884;12.064;2022-08-19T01:57:02;18.60;99.90
20566;DHT22;10441;50.884;12.064;2022-08-19T01:59:31;18.60;99.90
20566;DHT22;10441;50.884;12.064;2022-08-19T02:01:59;18.60;99.90
20566;DHT22;10441;50.884;12.064;2022-08-19T02:04:27;18.50;99.90
20566;DHT22;10441;50.884;12.064;2022-08-19T02:06:56;18.60;99.90
20566;DHT22;10441;50.884;12.064;2022-08-19T02:09:25;18.50;99.90
20566;DHT22;10441;50.884;12.064;2022-08-19T02:11:53;18.50;99.90
20566;DHT22;10441;50.884;12.064;2022-08-19T02:14:27;18.50;99.90
20566;DHT22;10441;50.884;12.064;2022-08-19T02:16:55;18.50;99.90
20566;DHT22;10441;50.884;12.064;2022-08-19T02:19:25;18.50;99.90
20566;DHT22;10441;50.884;12.064;2022-08-19T02:21:54;18.60;99.90
20566;DHT22;10441;50.884;12.064;2022-08-19T02:24:22;18.50;99.90
20566;DHT22;10441;50.884;12.064;2022-08-19T02:26:50;18.50;99.90
20566;DHT22;10441;50.884;12.064;2022-08-19T02:29:18;18.50;99.90
20566;DHT22;10441;50.884;12.064;2022-08-19T02:31:48;18.50;99.90
20566;DHT22;10441;50.884;12.064;2022-08-19T02:34:17;18.50;99.90
20566;DHT22;10441;50.884;12.064;2022-08-19T02:36:45;18.60;99.90
20566;DHT22;10441;50.884;12.064;2022-08-19T02:39:13;18.50;99.90
20566;DHT22;10441;50.884;12.064;2022-08-19T02:41:40;18.60;99.90
20566;DHT22;10441;50.884;12.064;2022-08-19T02:44:09;18.60;99.90
20566;DHT22;10441;50.884;12.064;2022-08-19T02:46:37;18.60;99.90
20566;DHT22;10441;50.884;12.064;2022-08-19T02:49:07;18.60;99.90
20566;DHT22;10441;50.884;12.064;2022-08-19T02:51:38;18.60;99.90
20566;DHT22;10441;50.884;12.064;2022-08-19T02:54:05;18.70;99.90
20566;DHT22;10441;50.884;12.064;2022-08-19T02:56:33;18.70;99.90
20566;DHT22;10441;50.884;12.064;2022-08-19T02:59:02;18.70;99.90
20566;DHT22;10441;50.884;12.064;2022-08-19T03:01:39;18.60;99.90
20566;DHT22;10441;50.884;12.064;2022-08-19T03:04:11;18.60;99.90
20566;DHT22;10441;50.884;12.064;2022-08-19T03:06:43;18.70;99.90
20566;DHT22;10441;50.884;12.064;2022-08-19T03:09:11;18.70;99.90
20566;DHT22;10441;50.884;12.064;2022-08-19T03:11:38;18.70;99.90
20566;DHT22;10441;50.884;12.064;2022-08-19T03:14:06;18.70;99.90
20566;DHT22;10441;50.884;12.064;2022-08-19T03:16:35;18.60;99.90
20566;DHT22;10441;50.884;12.064;2022-08-19T03:19:07;18.70;99.90
20566;DHT22;10441;50.884;12.064;2022-08-19T03:21:36;18.60;99.90
20566;DHT22;10441;50.884;12.064;2022-08-19T03:24:06;18.70;99.90
20566;DHT22;10441;50.884;12.064;2022-08-19T03:26:38;18.60;99.90
20566;DHT22;10441;50.884;12.064;2022-08-19T03:29:08;18.60;99.90
20566;DHT22;10441;50.884;12.064;2022-08-19T03:31:37;18.60;99.90
20566;DHT22;10441;50.884;12.064;2022-08-19T03:34:04;18.60;99.90
20566;DHT22;10441;50.884;12.064;2022-08-19T03:36:31;18.60;99.90
20566;DHT22;10441;50.884;12.064;2022-08-19T03:39:00;18.70;99.90
20566;DHT22;10441;50.884;12.064;2022-08-19T03:41:28;18.70;99.90
20566;DHT22;10441;50.884;12.064;2022-08-19T03:43:55;18.70;99.90
20566;DHT22;10441;50.884;12.064;2022-08-19T03:46:23;18.60;99.90
20566;DHT22;10441;50.884;12.064;2022-08-19T03:48:50;18.60;99.90
20566;DHT22;10441;50.884;12.064;2022-08-19T03:51:19;18.60;99.90
20566;DHT22;10441;50.884;12.064;2022-08-19T03:53:47;18.70;99.90
20566;DHT22;10441;50.884;12.064;2022-08-19T03:56:15;18.60;99.90
20566;DHT22;10441;50.884;12.064;2022-08-19T03:58:43;18.60;99.90
20566;DHT22;10441;50.884;12.064;2022-08-19T04:01:12;18.60;99.90
20566;DHT22;10441;50.884;12.064;2022-08-19T04:03:39;18.60;99.90
20566;DHT22;10441;50.884;12.064;2022-08-19T04:06:09;18.60;99.90
20566;DHT22;10441;50.884;12.064;2022-08-19T04:08:36;18.60;99.90
20566;DHT22;10441;50.884;12.064;2022-08-19T04:11:06;18.60;99.90
20566;DHT22;10441;50.884;12.064;2022-08-19T04:13:34;18.60;99.90
20566;DHT22;10441;50.884;12.064;2022-08-19T04:16:02;18.60;99.90
20566;DHT22;10441;50.884;12.064;2022-08-19T04:18:30;18.60;99.90
20566;DHT22;10441;50.884;12.064;2022-08-19T04:20:58;18.70;99.90
20566;DHT22;10441;50.884;12.064;2022-08-19T04:23:25;18.60;99.90
20566;DHT22;10441;50.884;12.064;2022-08-19T04:25:53;18.60;99.90
20566;DHT22;10441;50.884;12.064;2022-08-19T04:28:20;18.70;99.90
20566;DHT22;10441;50.884;12.064;2022-08-19T04:30:50;18.60;99.90
20566;DHT22;10441;50.884;12.064;2022-08-19T04:33:18;18.60;99.90
20566;DHT22;10441;50.884;12.064;2022-08-19T04:35:47;18.60;99.90
20566;DHT22;10441;50.884;12.064;2022-08-19T04:38:15;18.60;99.90
20566;DHT22;10441;50.884;12.064;2022-08-19T04:40:43;18.60;99.90
20566;DHT22;10441;50.884;12.064;2022-08-19T04:43:28;18.60;99.90
20566;DHT22;10441;50.884;12.064;2022-08-19T04:45:56;18.70;99.90
20566;DHT22;10441;50.884;12.064;2022-08-19T04:48:23;18.60;99.90
20566;DHT22;10441;50.884;12.064;2022-08-19T04:50:52;18.70;99.90
20566;DHT22;10441;50.884;12.064;2022-08-19T04:53:23;18.70;99.90
20566;DHT22;10441;50.884;12.064;2022-08-19T04:55:50;18.60;99.90
20566;DHT22;10441;50.884;12.064;2022-08-19T04:58:17;18.60;99.90
20566;DHT22;10441;50.884;12.064;2022-08-19T05:00:44;18.70;99.90
20566;DHT22;10441;50.884;12.064;2022-08-19T05:03:12;18.70;99.90
20566;DHT22;10441;50.884;12.064;2022-08-19T05:05:42;18.70;99.90
20566;DHT22;10441;50.884;12.064;2022-08-19T05:08:10;18.60;99.90
20566;DHT22;10441;50.884;12.064;2022-08-19T05:10:37;18.70;99.90
20566;DHT22;10441;50.884;12.064;2022-08-19T05:13:05;18.70;99.90
20566;DHT22;10441;50.884;12.064;2022-08-19T05:15:34;18.70;99.90
20566;DHT22;10441;50.884;12.064;2022-08-19T05:18:01;18.80;99.90
20566;DHT22;10441;50.884;12.064;2022-08-19T05:20:46;18.80;99.90
20566;DHT22;10441;50.884;12.064;2022-08-19T05:23:31;18.80;99.90
20566;DHT22;10441;50.884;12.064;2022-08-19T05:25:58;18.90;99.90
20566;DHT22;10441;50.884;12.064;2022-08-19T05:28:28;18.80;99.90
20566;DHT22;10441;50.884;12.064;2022-08-19T05:30:59;18.90;99.90
20566;DHT22;10441;50.884;12.064;2022-08-19T05:33:30;18.90;99.90
20566;DHT22;10441;50.884;12.064;2022-08-19T05:36:03;19.00;99.90
20566;DHT22;10441;50.884;12.064;2022-08-19T05:38:30;19.10;99.90
20566;DHT22;10441;50.884;12.064;2022-08-19T05:41:00;19.10;99.90
20566;DHT22;10441;50.884;12.064;2022-08-19T05:43:28;19.20;99.90
20566;DHT22;10441;50.884;12.064;2022-08-19T05:45:55;19.20;99.90
20566;DHT22;10441;50.884;12.064;2022-08-19T05:48:23;19.20;99.90
20566;DHT22;10441;50.884;12.064;2022-08-19T05:50:52;19.30;99.90
20566;DHT22;10441;50.884;12.064;2022-08-19T05:53:20;19.20;99.90
20566;DHT22;10441;50.884;12.064;2022-08-19T05:55:47;19.20;99.90
20566;DHT22;10441;50.884;12.064;2022-08-19T05:58:14;19.30;99.90
20566;DHT22;10441;50.884;12.064;2022-08-19T06:00:42;19.30;99.90
20566;DHT22;10441;50.884;12.064;2022-08-19T06:03:09;19.40;99.90
20566;DHT22;10441;50.884;12.064;2022-08-19T06:05:36;19.40;99.90
20566;DHT22;10441;50.884;12.064;2022-08-19T06:08:03;19.40;99.90
20566;DHT22;10441;50.884;12.064;2022-08-19T06:10:34;19.40;99.90
20566;DHT22;10441;50.884;12.064;2022-08-19T06:13:01;19.30;99.90
20566;DHT22;10441;50.884;12.064;2022-08-19T06:15:28;19.40;99.90
20566;DHT22;10441;50.884;12.064;2022-08-19T06:17:55;19.30;99.90
20566;DHT22;10441;50.884;12.064;2022-08-19T06:20:22;19.40;99.90
20566;DHT22;10441;50.884;12.064;2022-08-19T06:22:51;19.40;99.90
20566;DHT22;10441;50.884;12.064;2022-08-19T06:25:18;19.50;99.90
20566;DHT22;10441;50.884;12.064;2022-08-19T06:27:46;19.50;99.90
20566;DHT22;10441;50.884;12.064;2022-08-19T06:30:13;19.50;99.90
20566;DHT22;10441;50.884;12.064;2022-08-19T06:32:40;19.50;99.90
20566;DHT22;10441;50.884;12.064;2022-08-19T06:35:07;19.60;99.90
20566;DHT22;10441;50.884;12.064;2022-08-19T06:37:35;19.50;99.90
20566;DHT22;10441;50.884;12.064;2022-08-19T06:40:03;19.60;99.90
20566;DHT22;10441;50.884;12.064;2022-08-19T06:42:30;19.60;99.90
20566;DHT22;10441;50.884;12.064;2022-08-19T06:45:01;19.50;99.90
20566;DHT22;10441;50.884;12.064;2022-08-19T06:47:31;19.50;99.90
20566;DHT22;10441;50.884;12.064;2022-08-19T06:49:59;19.60;99.90
20566;DHT22;10441;50.884;12.064;2022-08-19T06:52:28;19.60;99.90
20566;DHT22;10441;50.884;12.064;2022-08-19T06:54:55;19.50;99.90
20566;DHT22;10441;50.884;12.064;2022-08-19T06:57:23;19.50;99.90
20566;DHT22;10441;50.884;12.064;2022-08-19T06:59:49;19.60;99.90
20566;DHT22;10441;50.884;12.064;2022-08-19T07:02:18;19.60;99.90
20566;DHT22;10441;50.884;12.064;2022-08-19T07:04:54;19.70;99.90
20566;DHT22;10441;50.884;12.064;2022-08-19T07:07:23;19.70;99.90
20566;DHT22;10441;50.884;12.064;2022-08-19T07:09:50;19.60;99.90
20566;DHT22;10441;50.884;12.064;2022-08-19T07:12:18;19.70;99.90
20566;DHT22;10441;50.884;12.064;2022-08-19T07:14:45;19.70;99.90
20566;DHT22;10441;50.884;12.064;2022-08-19T07:17:13;19.70;99.90
20566;DHT22;10441;50.884;12.064;2022-08-19T07:19:40;19.80;99.90
20566;DHT22;10441;50.884;12.064;2022-08-19T07:22:09;19.80;99.90
20566;DHT22;10441;50.884;12.064;2022-08-19T07:24:36;19.80;99.90
20566;DHT22;10441;50.884;12.064;2022-08-19T07:27:04;19.90;99.90
20566;DHT22;10441;50.884;12.064;2022-08-19T07:29:32;19.80;99.90
20566;DHT22;10441;50.884;12.064;2022-08-19T07:32:00;19.80;99.90
20566;DHT22;10441;50.884;12.064;2022-08-19T07:34:27;19.70;99.90
20566;DHT22;10441;50.884;12.064;2022-08-19T07:36:54;19.70;99.90
20566;DHT22;10441;50.884;12.064;2022-08-19T07:39:24;19.80;99.90
20566;DHT22;10441;50.884;12.064;2022-08-19T07:41:52;19.70;99.90
20566;DHT22;10441;50.884;12.064;2022-08-19T07:44:19;19.70;99.90
20566;DHT22;10441;50.884;12.064;2022-08-19T07:46:47;19.80;99.90
20566;DHT22;10441;50.884;12.064;2022-08-19T07:49:15;19.90;99.90
20566;DHT22;10441;50.884;12.064;2022-08-19T07:51:45;19.90;99.90
20566;DHT22;10441;50.884;12.064;2022-08-19T07:54:12;19.90;99.90
20566;DHT22;10441;50.884;12.064;2022-08-19T07:56:40;19.80;99.90
20566;DHT22;10441;50.884;12.064;2022-08-19T07:59:07;19.80;99.90
20566;DHT22;10441;50.884;12.064;2022-08-19T08:01:34;19.80;99.90
20566;DHT22;10441;50.884;12.064;2022-08-19T08:04:01;19.80;99.90
20566;DHT22;10441;50.884;12.064;2022-08-19T08:06:46;19.70;99.90
20566;DHT22;10441;50.884;12.064;2022-08-19T08:09:31;19.80;99.90
20566;DHT22;10441;50.884;12.064;2022-08-19T08:12:03;19.70;99.90
20566;DHT22;10441;50.884;12.064;2022-08-19T08:14:32;19.70;99.90
20566;DHT22;10441;50.884;12.064;2022-08-19T08:17:03;19.70;99.90
20566;DHT22;10441;50.884;12.064;2022-08-19T08:19:31;19.70;99.90
20566;DHT22;10441;50.884;12.064;2022-08-19T08:21:59;19.70;99.90
20566;DHT22;10441;50.884;12.064;2022-08-19T08:24:26;19.70;99.90
20566;DHT22;10441;50.884;12.064;2022-08-19T08:26:54;19.90;99.90
20566;DHT22;10441;50.884;12.064;2022-08-19T08:29:23;19.70;99.90
20566;DHT22;10441;50.884;12.064;2022-08-19T08:31:50;19.80;99.90
20566;DHT22;10441;50.884;12.064;2022-08-19T08:34:17;19.80;99.90
20566;DHT22;10441;50.884;12.064;2022-08-19T08:36:44;19.80;99.90
20566;DHT22;10441;50.884;12.064;2022-08-19T08:39:12;19.80;99.90
20566;DHT22;10441;50.884;12.064;2022-08-19T08:41:41;19.80;99.90
20566;DHT22;10441;50.884;12.064;2022-08-19T08:44:11;19.80;99.90
20566;DHT22;10441;50.884;12.064;2022-08-19T08:46:43;19.80;99.90
20566;DHT22;10441;50.884;12.064;2022-08-19T08:49:15;19.80;99.90
20566;DHT22;10441;50.884;12.064;2022-08-19T08:51:44;19.80;99.90
20566;DHT22;10441;50.884;12.064;2022-08-19T08:54:13;19.70;99.90
20566;DHT22;10441;50.884;12.064;2022-08-19T08:56:42;19.70;99.90
20566;DHT22;10441;50.884;12.064;2022-08-19T08:59:10;19.70;99.90
20566;DHT22;10441;50.884;12.064;2022-08-19T09:01:39;19.70;99.90
20566;DHT22;10441;50.884;12.064;2022-08-19T09:04:07;19.70;99.90
20566;DHT22;10441;50.884;12.064;2022-08-19T09:06:37;19.70;99.90
20566;DHT22;10441;50.884;12.064;2022-08-19T09:09:09;19.70;99.90
20566;DHT22;10441;50.884;12.064;2022-08-19T09:11:43;19.70;99.90
20566;DHT22;10441;50.884;12.064;2022-08-19T09:14:15;19.80;99.90
20566;DHT22;10441;50.884;12.064;2022-08-19T09:16:44;19.80;99.90
20566;DHT22;10441;50.884;12.064;2022-08-19T09:19:13;19.70;99.90
20566;DHT22;10441;50.884;12.064;2022-08-19T09:21:43;19.70;99.90
20566;DHT22;10441;50.884;12.064;2022-08-19T09:24:10;19.60;99.90
20566;DHT22;10441;50.884;12.064;2022-08-19T09:26:38;19.50;99.90
20566;DHT22;10441;50.884;12.064;2022-08-19T09:29:04;19.40;99.90
20566;DHT22;10441;50.884;12.064;2022-08-19T09:31:32;19.50;99.90
20566;DHT22;10441;50.884;12.064;2022-08-19T09:33:59;19.40;99.90
20566;DHT22;10441;50.884;12.064;2022-08-19T09:36:31;19.30;99.90
20566;DHT22;10441;50.884;12.064;2022-08-19T09:38:59;19.40;99.90
20566;DHT22;10441;50.884;12.064;2022-08-19T09:41:26;19.40;99.90
20566;DHT22;10441;50.884;12.064;2022-08-19T09:43:54;19.50;99.90
20566;DHT22;10441;50.884;12.064;2022-08-19T09:46:22;19.40;99.90
20566;DHT22;10441;50.884;12.064;2022-08-19T09:48:50;19.40;99.90
20566;DHT22;10441;50.884;12.064;2022-08-19T09:51:18;19.40;99.90
20566;DHT22;10441;50.884;12.064;2022-08-19T09:53:47;19.40;99.90
20566;DHT22;10441;50.884;12.064;2022-08-19T09:56:16;19.50;99.90
20566;DHT22;10441;50.884;12.064;2022-08-19T09:58:43;19.30;99.90
20566;DHT22;10441;50.884;12.064;2022-08-19T10:01:15;19.30;99.90
20566;DHT22;10441;50.884;12.064;2022-08-19T10:03:42;19.30;99.90
20566;DHT22;10441;50.884;12.064;2022-08-19T10:06:09;19.30;99.90
20566;DHT22;10441;50.884;12.064;2022-08-19T10:08:36;19.30;99.90
20566;DHT22;10441;50.884;12.064;2022-08-19T10:11:06;19.20;99.90
20566;DHT22;10441;50.884;12.064;2022-08-19T10:13:33;19.10;99.90
20566;DHT22;10441;50.884;12.064;2022-08-19T10:16:03;19.30;99.90
20566;DHT22;10441;50.884;12.064;2022-08-19T10:18:31;19.40;99.90
20566;DHT22;10441;50.884;12.064;2022-08-19T10:21:04;19.40;99.90
20566;DHT22;10441;50.884;12.064;2022-08-19T10:23:34;19.40;99.90
20566;DHT22;10441;50.884;12.064;2022-08-19T10:26:01;19.60;99.90
20566;DHT22;10441;50.884;12.064;2022-08-19T10:28:33;19.60;99.90
20566;DHT22;10441;50.884;12.064;2022-08-19T10:31:03;20.00;99.90
20566;DHT22;10441;50.884;12.064;2022-08-19T10:33:31;20.10;99.90
20566;DHT22;10441;50.884;12.064;2022-08-19T10:35:59;20.00;99.90
20566;DHT22;10441;50.884;12.064;2022-08-19T10:38:26;20.00;99.90
20566;DHT22;10441;50.884;12.064;2022-08-19T10:40:54;19.90;99.90
20566;DHT22;10441;50.884;12.064;2022-08-19T10:43:21;20.10;99.90
20566;DHT22;10441;50.884;12.064;2022-08-19T10:45:52;20.10;99.90
20566;DHT22;10441;50.884;12.064;2022-08-19T10:48:21;19.90;99.90
20566;DHT22;10441;50.884;12.064;2022-08-19T10:50:48;19.90;99.90
20566;DHT22;10441;50.884;12.064;2022-08-19T10:53:41;19.70;99.90
20566;DHT22;10441;50.884;12.064;2022-08-19T10:56:07;20.30;99.90
20566;DHT22;10441;50.884;12.064;2022-08-19T10:58:51;20.00;99.90
20566;DHT22;10441;50.884;12.064;2022-08-19T11:01:20;19.70;99.90
20566;DHT22;10441;50.884;12.064;2022-08-19T11:03:46;19.60;99.90
20566;DHT22;10441;50.884;12.064;2022-08-19T11:06:13;19.70;99.90
20566;DHT22;10441;50.884;12.064;2022-08-19T11:08:40;19.60;99.90
20566;DHT22;10441;50.884;12.064;2022-08-19T11:11:10;20.00;99.90
20566;DHT22;10441;50.884;12.064;2022-08-19T11:13:38;20.10;99.90
20566;DHT22;10441;50.884;12.064;2022-08-19T11:16:07;19.90;99.90
20566;DHT22;10441;50.884;12.064;2022-08-19T11:18:36;19.90;99.90
20566;DHT22;10441;50.884;12.064;2022-08-19T11:21:11;20.00;99.90
20566;DHT22;10441;50.884;12.064;2022-08-19T11:23:38;19.80;99.90
20566;DHT22;10441;50.884;12.064;2022-08-19T11:26:05;19.50;99.90
20566;DHT22;10441;50.884;12.064;2022-08-19T11:28:32;19.70;99.90
20566;DHT22;10441;50.884;12.064;2022-08-19T11:30:59;19.80;99.90
20566;DHT22;10441;50.884;12.064;2022-08-19T11:33:28;19.70;99.90
20566;DHT22;10441;50.884;12.064;2022-08-19T11:35:57;20.20;99.90
20566;DHT22;10441;50.884;12.064;2022-08-19T11:38:26;20.20;99.90
20566;DHT22;10441;50.884;12.064;2022-08-19T11:40:56;20.00;99.90
20566;DHT22;10441;50.884;12.064;2022-08-19T11:43:24;20.40;99.90
20566;DHT22;10441;50.884;12.064;2022-08-19T11:45:52;20.00;99.90
20566;DHT22;10441;50.884;12.064;2022-08-19T11:48:19;20.00;99.90
20566;DHT22;10441;50.884;12.064;2022-08-19T11:50:47;20.00;99.90
20566;DHT22;10441;50.884;12.064;2022-08-19T11:53:15;20.40;99.90
20566;DHT22;10441;50.884;12.064;2022-08-19T11:55:43;20.90;99.90
20566;DHT22;10441;50.884;12.064;2022-08-19T11:58:10;20.30;99.90
20566;DHT22;10441;50.884;12.064;2022-08-19T12:00:37;20.20;99.90
20566;DHT22;10441;50.884;12.064;2022-08-19T12:03:04;20.60;99.90
20566;DHT22;10441;50.884;12.064;2022-08-19T12:05:32;20.40;99.90
20566;DHT22;10441;50.884;12.064;2022-08-19T12:07:59;20.70;99.90
20566;DHT22;10441;50.884;12.064;2022-08-19T12:10:27;21.00;99.90
20566;DHT22;10441;50.884;12.064;2022-08-19T12:12:54;20.50;99.90
20566;DHT22;10441;50.884;12.064;2022-08-19T12:15:21;20.80;99.90
20566;DHT22;10441;50.884;12.064;2022-08-19T12:17:48;20.70;99.90
20566;DHT22;10441;50.884;12.064;2022-08-19T12:20:14;20.90;99.90
20566;DHT22;10441;50.884;12.064;2022-08-19T12:22:42;21.30;99.90
20566;DHT22;10441;50.884;12.064;2022-08-19T12:25:09;21.60;99.90
20566;DHT22;10441;50.884;12.064;2022-08-19T12:27:38;21.30;99.90
20566;DHT22;10441;50.884;12.064;2022-08-19T12:30:06;20.90;99.90
20566;DHT22;10441;50.884;12.064;2022-08-19T12:32:33;21.10;99.90
20566;DHT22;10441;50.884;12.064;2022-08-19T12:35:00;20.60;99.90
20566;DHT22;10441;50.884;12.064;2022-08-19T12:37:27;20.20;99.90
20566;DHT22;10441;50.884;12.064;2022-08-19T12:39:57;20.40;99.90
20566;DHT22;10441;50.884;12.064;2022-08-19T12:42:24;20.40;99.90
20566;DHT22;10441;50.884;12.064;2022-08-19T12:44:52;20.70;99.90
20566;DHT22;10441;50.884;12.064;2022-08-19T12:47:19;20.80;99.90
20566;DHT22;10441;50.884;12.064;2022-08-19T12:49:48;20.60;99.90
20566;DHT22;10441;50.884;12.064;2022-08-19T12:52:17;20.70;99.90
20566;DHT22;10441;50.884;12.064;2022-08-19T12:54:46;20.80;99.90
20566;DHT22;10441;50.884;12.064;2022-08-19T12:57:14;21.40;99.90
20566;DHT22;10441;50.884;12.064;2022-08-19T12:59:41;21.70;99.90
20566;DHT22;10441;50.884;12.064;2022-08-19T13:02:09;21.50;99.90
20566;DHT22;10441;50.884;12.064;2022-08-19T13:04:36;20.90;99.90
20566;DHT22;10441;50.884;12.064;2022-08-19T13:07:06;20.80;99.90
20566;DHT22;10441;50.884;12.064;2022-08-19T13:09:33;21.10;99.90
20566;DHT22;10441;50.884;12.064;2022-08-19T13:12:00;20.80;99.90
20566;DHT22;10441;50.884;12.064;2022-08-19T13:14:32;20.50;99.90
20566;DHT22;10441;50.884;12.064;2022-08-19T13:16:59;20.90;99.90
20566;DHT22;10441;50.884;12.064;2022-08-19T13:19:28;20.70;99.90
20566;DHT22;10441;50.884;12.064;2022-08-19T13:21:55;20.80;99.90
20566;DHT22;10441;50.884;12.064;2022-08-19T13:24:23;20.70;99.90
20566;DHT22;10441;50.884;12.064;2022-08-19T13:26:50;20.90;99.90
20566;DHT22;10441;50.884;12.064;2022-08-19T13:29:17;21.20;99.90
20566;DHT22;10441;50.884;12.064;2022-08-19T13:32:03;21.30;99.90
20566;DHT22;10441;50.884;12.064;2022-08-19T13:34:48;21.30;99.90
20566;DHT22;10441;50.884;12.064;2022-08-19T13:37:15;21.20;99.90
20566;DHT22;10441;50.884;12.064;2022-08-19T13:40:02;21.30;99.90
20566;DHT22;10441;50.884;12.064;2022-08-19T13:42:29;21.30;99.90
20566;DHT22;10441;50.884;12.064;2022-08-19T13:44:58;21.20;99.90
20566;DHT22;10441;50.884;12.064;2022-08-19T13:47:25;21.30;99.90
20566;DHT22;10441;50.884;12.064;2022-08-19T13:49:53;21.40;99.90
20566;DHT22;10441;50.884;12.064;2022-08-19T13:52:20;21.50;99.90
20566;DHT22;10441;50.884;12.064;2022-08-19T13:54:47;21.40;99.90
20566;DHT22;10441;50.884;12.064;2022-08-19T13:57:14;21.50;99.90
20566;DHT22;10441;50.884;12.064;2022-08-19T13:59:41;21.60;99.90
20566;DHT22;10441;50.884;12.064;2022-08-19T14:02:08;21.30;99.90
20566;DHT22;10441;50.884;12.064;2022-08-19T14:04:36;21.20;99.90
20566;DHT22;10441;50.884;12.064;2022-08-19T14:07:05;21.20;99.90
20566;DHT22;10441;50.884;12.064;2022-08-19T14:09:32;21.20;99.90
20566;DHT22;10441;50.884;12.064;2022-08-19T14:11:59;21.70;99.90
20566;DHT22;10441;50.884;12.064;2022-08-19T14:14:26;21.40;99.90
20566;DHT22;10441;50.884;12.064;2022-08-19T14:16:52;21.40;99.90
20566;DHT22;10441;50.884;12.064;2022-08-19T14:19:19;21.60;99.90
20566;DHT22;10441;50.884;12.064;2022-08-19T14:21:46;21.60;99.90
20566;DHT22;10441;50.884;12.064;2022-08-19T14:24:15;21.20;99.90
20566;DHT22;10441;50.884;12.064;2022-08-19T14:26:42;20.90;99.90
20566;DHT22;10441;50.884;12.064;2022-08-19T14:29:08;21.50;99.90
20566;DHT22;10441;50.884;12.064;2022-08-19T14:31:35;21.80;99.90
20566;DHT22;10441;50.884;12.064;2022-08-19T14:34:02;21.70;99.90
20566;DHT22;10441;50.884;12.064;2022-08-19T14:36:29;21.70;99.90
20566;DHT22;10441;50.884;12.064;2022-08-19T14:38:57;21.70;99.90
20566;DHT22;10441;50.884;12.064;2022-08-19T14:41:27;20.80;99.90
20566;DHT22;10441;50.884;12.064;2022-08-19T14:43:55;21.00;99.90
20566;DHT22;10441;50.884;12.064;2022-08-19T14:46:23;21.00;99.90
20566;DHT22;10441;50.884;12.064;2022-08-19T14:48:52;20.90;99.90
20566;DHT22;10441;50.884;12.064;2022-08-19T14:51:19;21.20;99.90
20566;DHT22;10441;50.884;12.064;2022-08-19T14:53:47;21.10;99.90
20566;DHT22;10441;50.884;12.064;2022-08-19T14:56:16;20.80;99.90
20566;DHT22;10441;50.884;12.064;2022-08-19T14:58:45;20.90;99.90
20566;DHT22;10441;50.884;12.064;2022-08-19T15:01:12;20.80;99.90
20566;DHT22;10441;50.884;12.064;2022-08-19T15:03:39;20.70;99.90
20566;DHT22;10441;50.884;12.064;2022-08-19T15:06:07;21.00;99.90
20566;DHT22;10441;50.884;12.064;2022-08-19T15:08:34;21.20;99.90
20566;DHT22;10441;50.884;12.064;2022-08-19T15:11:02;21.00;99.90
20566;DHT22;10441;50.884;12.064;2022-08-19T15:13:29;20.80;99.90
20566;DHT22;10441;50.884;12.064;2022-08-19T15:15:57;20.80;99.90
20566;DHT22;10441;50.884;12.064;2022-08-19T15:18:25;20.90;99.90
20566;DHT22;10441;50.884;12.064;2022-08-19T15:20:52;20.80;99.90
20566;DHT22;10441;50.884;12.064;2022-08-19T15:23:19;20.90;99.90
20566;DHT22;10441;50.884;12.064;2022-08-19T15:25:47;20.60;99.90